Time;durP1;ratioP1;P1;durP2;ratioP2;P2;SDS_P1;SDS_P2;PMS_P1;PMS_P2;Temp;Humidity;BMP_temperature;BMP_pressure;BME280_temperature;BME280_humidity;BME280_pressure;Samples;Min_cycle;Max_cycle;Signal;HPM_P1;HPM_P2
2022/12/30 00:01:37;;;;;;;0.30;0.20;;;;;;;10.35;100.00;99738.63;4962603;28;21402;-78
2022/12/30 00:04:06;;;;;;;0.80;0.30;;;;;;;10.35;100.00;99732.56;4964459;28;20043;-74
2022/12/30 00:06:35;;;;;;;0.73;0.32;;;;;;;10.35;100.00;99733.44;4965508;28;20055;-77
2022/12/30 00:09:03;;;;;;;0.45;0.35;;;;;;;10.38;100.00;99732.66;4967264;28;20058;-75
2022/12/30 00:11:34;;;;;;;0.30;0.20;;;;;;;10.37;100.00;99724.00;4963488;28;20145;-76
2022/12/30 00:33:48;;;;;;;1.38;0.80;;;;;;;10.31;100.00;99707.53;4963797;28;20050;-77
2022/12/30 00:36:17;;;;;;;0.55;0.45;;;;;;;10.29;100.00;99699.75;4965377;28;20062;-77
2022/12/30 00:38:46;;;;;;;1.25;0.70;;;;;;;10.29;100.00;99702.34;4965973;28;20046;-77
2022/12/30 00:44:03;;;;;;;0.40;0.40;;;;;;;10.27;100.00;99693.66;4933233;28;20049;-76
2022/12/30 00:46:32;;;;;;;0.93;0.52;;;;;;;10.27;100.00;99691.94;4969198;28;20138;-77
2022/12/30 00:57:18;;;;;;;1.40;0.40;;;;;;;10.34;100.00;99674.84;4969185;28;20101;-81
2022/12/30 00:59:46;;;;;;;0.95;0.63;;;;;;;10.33;100.00;99678.28;4961688;28;20499;-77
2022/12/30 01:02:15;;;;;;;1.55;0.50;;;;;;;10.36;100.00;99680.03;4957786;28;20417;-78
2022/12/30 01:04:45;;;;;;;0.93;0.50;;;;;;;10.38;100.00;99673.16;4962917;28;20045;-78
2022/12/30 01:07:14;;;;;;;0.85;0.50;;;;;;;10.40;100.00;99679.19;4965124;28;20139;-77
2022/12/30 01:09:42;;;;;;;1.00;0.60;;;;;;;10.37;100.00;99676.59;4959442;28;20095;-78
2022/12/30 01:12:11;;;;;;;0.65;0.40;;;;;;;10.35;100.00;99670.53;4960745;28;20134;-80
2022/12/30 01:14:41;;;;;;;1.55;0.50;;;;;;;10.36;100.00;99662.78;4960821;28;20051;-78
2022/12/30 01:17:11;;;;;;;1.40;0.47;;;;;;;10.36;100.00;99661.94;4963215;28;20065;-81
2022/12/30 01:19:41;;;;;;;0.38;0.38;;;;;;;10.27;100.00;99662.66;4965452;28;20062;-80
2022/12/30 01:22:11;;;;;;;0.40;0.30;;;;;;;10.27;100.00;99648.00;4964208;28;20834;-81
2022/12/30 01:24:40;;;;;;;0.95;0.50;;;;;;;10.29;100.00;99660.13;4959850;28;20066;-79
2022/12/30 01:27:09;;;;;;;1.23;0.50;;;;;;;10.28;100.00;99654.03;4962152;28;20844;-81
2022/12/30 01:29:39;;;;;;;0.85;0.30;;;;;;;10.30;100.00;99651.50;4964961;28;20489;-79
2022/12/30 01:32:11;;;;;;;0.55;0.45;;;;;;;10.25;100.00;99644.50;4964711;28;20634;-78
2022/12/30 01:34:40;;;;;;;0.40;0.30;;;;;;;10.30;100.00;99649.78;4965368;28;20500;-78
2022/12/30 01:37:11;;;;;;;1.33;0.30;;;;;;;10.30;100.00;99642.03;4969332;28;20110;-79
2022/12/30 01:39:40;;;;;;;0.60;0.30;;;;;;;10.27;100.00;99642.81;4968596;28;20692;-78
2022/12/30 01:42:19;;;;;;;1.73;0.52;;;;;;;10.29;100.00;99644.59;4975219;28;20486;-81
2022/12/30 01:45:01;;;;;;;0.75;0.55;;;;;;;10.30;100.00;99647.19;4969083;28;20042;-78
2022/12/30 01:47:37;;;;;;;2.20;0.45;;;;;;;10.32;100.00;99634.28;4972301;28;20114;-80
2022/12/30 01:50:15;;;;;;;0.70;0.30;;;;;;;10.34;100.00;99637.78;4966332;28;20051;-79
2022/12/30 01:52:49;;;;;;;0.60;0.40;;;;;;;10.35;100.00;99645.53;4968576;28;20504;-77
2022/12/30 01:55:23;;;;;;;0.80;0.30;;;;;;;10.35;100.00;99637.78;4965874;28;20459;-76
2022/12/30 01:57:54;;;;;;;0.50;0.40;;;;;;;10.38;100.00;99644.72;4968200;28;20054;-77
2022/12/30 02:00:24;;;;;;;1.05;0.63;;;;;;;10.39;100.00;99636.09;4969176;28;20069;-77
2022/12/30 02:02:55;;;;;;;2.13;0.50;;;;;;;10.40;100.00;99630.97;4966880;28;20057;-78
2022/12/30 02:05:29;;;;;;;1.05;0.32;;;;;;;10.42;100.00;99628.38;4962884;28;20458;-77
2022/12/30 02:08:05;;;;;;;0.63;0.30;;;;;;;10.46;100.00;99628.44;4967410;28;20047;-77
2022/12/30 02:10:39;;;;;;;2.08;0.57;;;;;;;10.47;100.00;99621.56;4962368;28;20043;-77
2022/12/30 02:13:11;;;;;;;0.52;0.35;;;;;;;10.52;100.00;99617.31;4966986;28;20131;-76
2022/12/30 02:15:52;;;;;;;1.38;0.50;;;;;;;10.57;100.00;99612.19;4965875;28;20212;-77
2022/12/30 02:18:34;;;;;;;0.60;0.40;;;;;;;10.57;100.00;99605.28;4966097;28;20567;-77
2022/12/30 02:21:37;;;;;;;1.85;0.65;;;;;;;10.63;100.00;99607.94;4966840;28;20042;-76
2022/12/30 02:24:37;;;;;;;0.70;0.70;;;;;;;10.63;100.00;99605.34;4963939;28;20042;-77
2022/12/30 02:27:27;;;;;;;0.68;0.52;;;;;;;10.60;100.00;99600.13;4959321;28;20066;-77
2022/12/30 02:30:08;;;;;;;0.52;0.30;;;;;;;10.59;100.00;99593.22;4962660;28;20064;-77
2022/12/30 02:32:59;;;;;;;0.77;0.38;;;;;;;10.56;100.00;99590.63;4966680;28;20057;-77
2022/12/30 02:35:36;;;;;;;0.30;0.30;;;;;;;10.52;100.00;99581.09;4957605;28;20165;-76
2022/12/30 02:38:15;;;;;;;0.85;0.40;;;;;;;10.48;100.00;99575.00;4964073;28;20054;-75
2022/12/30 02:46:34;;;;;;;0.30;0.30;;;;;;;10.48;100.00;99558.63;4967257;28;20143;-76
2022/12/30 02:49:08;;;;;;;2.25;0.50;;;;;;;10.43;100.00;99544.78;4952232;28;20621;-76
2022/12/30 02:54:25;;;;;;;0.40;0.38;;;;;;;10.49;100.00;99534.53;4959313;28;20053;-76
2022/12/30 02:56:54;;;;;;;3.75;0.50;;;;;;;10.49;100.00;99529.34;4966861;28;20082;-76
2022/12/30 03:05:31;;;;;;;0.73;0.40;;;;;;;10.42;100.00;99522.34;4964694;28;20393;-76
2022/12/30 03:08:08;;;;;;;0.40;0.40;;;;;;;10.38;100.00;99521.47;4966847;28;20051;-78
2022/12/30 03:13:34;;;;;;;1.17;0.50;;;;;;;10.37;100.00;99519.72;4960836;28;20062;-76
2022/12/30 03:16:08;;;;;;;1.05;0.70;;;;;;;10.40;100.00;99517.19;4961590;28;20508;-75
2022/12/30 03:18:37;;;;;;;0.98;0.40;;;;;;;10.41;100.00;99511.16;4962439;28;20520;-76
2022/12/30 03:21:09;;;;;;;8.77;0.70;;;;;;;10.44;100.00;99505.13;4966974;28;20070;-75
2022/12/30 03:29:16;;;;;;;0.80;0.40;;;;;;;10.44;100.00;99494.78;4962565;28;20592;-76
2022/12/30 03:31:45;;;;;;;1.15;0.40;;;;;;;10.43;100.00;99488.75;4960465;28;20061;-78
2022/12/30 03:34:13;;;;;;;0.43;0.30;;;;;;;10.41;100.00;99492.19;4964627;28;20620;-76
2022/12/30 03:36:47;;;;;;;1.20;0.40;;;;;;;10.39;100.00;99483.53;4963848;28;20051;-76
2022/12/30 03:39:19;;;;;;;0.85;0.30;;;;;;;10.34;100.00;99491.25;4967750;28;20280;-82
2022/12/30 03:41:51;;;;;;;2.05;0.40;;;;;;;10.31;100.00;99485.16;4964510;28;20046;-77
2022/12/30 03:44:20;;;;;;;0.70;0.32;;;;;;;10.29;100.00;99481.72;4964280;28;20903;-75
2022/12/30 03:46:50;;;;;;;1.02;0.50;;;;;;;10.29;100.00;99474.84;4973679;28;21329;-74
2022/12/30 03:49:19;;;;;;;2.42;0.40;;;;;;;10.26;100.00;99475.63;4968745;28;20435;-76
2022/12/30 03:51:50;;;;;;;0.70;0.50;;;;;;;10.26;100.00;99478.22;4965346;28;20484;-74
2022/12/30 03:54:18;;;;;;;0.70;0.30;;;;;;;10.23;100.00;99465.25;4965702;28;20053;-73
2022/12/30 03:56:47;;;;;;;1.42;0.47;;;;;;;10.21;100.00;99464.38;4966910;28;20508;-73
2022/12/30 03:59:15;;;;;;;1.58;0.45;;;;;;;10.22;100.00;99458.34;4964887;28;20514;-74
2022/12/30 04:01:44;;;;;;;0.80;0.35;;;;;;;10.22;100.00;99450.59;4967716;28;20047;-73
2022/12/30 04:04:12;;;;;;;0.40;0.30;;;;;;;10.23;100.00;99441.97;4966033;28;20063;-74
2022/12/30 04:06:41;;;;;;;0.70;0.47;;;;;;;10.26;100.00;99436.88;4968127;28;20047;-75
2022/12/30 04:09:11;;;;;;;1.75;0.50;;;;;;;10.25;100.00;99442.88;4964405;28;20050;-74
2022/12/30 04:11:40;;;;;;;2.35;0.65;;;;;;;10.27;100.00;99430.81;4971100;28;20042;-74
2022/12/30 04:14:08;;;;;;;1.10;0.60;;;;;;;10.29;100.00;99422.28;4964858;28;20424;-74
2022/12/30 04:16:37;;;;;;;2.85;0.68;;;;;;;10.30;100.00;99411.06;4969326;28;20911;-74
2022/12/30 04:19:05;;;;;;;1.30;0.32;;;;;;;10.31;100.00;99412.78;4966428;28;20096;-75
2022/12/30 04:21:34;;;;;;;3.05;0.85;;;;;;;10.31;100.00;99410.19;4963822;28;20692;-74
2022/12/30 04:24:03;;;;;;;1.83;0.70;;;;;;;10.31;100.00;99407.59;4966128;28;20055;-75
2022/12/30 04:26:34;;;;;;;0.90;0.50;;;;;;;10.31;100.00;99397.28;4963884;28;20055;-75
2022/12/30 04:29:02;;;;;;;0.70;0.50;;;;;;;10.32;100.00;99396.44;4964492;28;20053;-76
2022/12/30 04:31:31;;;;;;;2.92;0.50;;;;;;;10.33;100.00;99386.13;4964864;28;20429;-75
2022/12/30 04:34:00;;;;;;;1.42;0.40;;;;;;;10.34;100.00;99374.91;4966790;28;20062;-75
2022/12/30 04:36:28;;;;;;;1.85;0.30;;;;;;;10.36;100.00;99367.16;4968935;28;20135;-76
2022/12/30 04:38:57;;;;;;;1.50;0.40;;;;;;;10.34;100.00;99349.06;4968377;28;20528;-77
2022/12/30 04:41:26;;;;;;;0.68;0.52;;;;;;;10.32;100.00;99334.38;4964105;28;20580;-77
2022/12/30 04:43:56;;;;;;;0.85;0.30;;;;;;;10.32;100.00;99326.63;4970378;28;20051;-76
2022/12/30 04:46:24;;;;;;;0.52;0.40;;;;;;;10.27;100.00;99327.41;4966556;28;20058;-77
2022/12/30 04:48:53;;;;;;;2.33;0.50;;;;;;;10.26;100.00;99323.13;4965312;28;20631;-76
2022/12/30 04:51:22;;;;;;;1.55;1.25;;;;;;;10.25;100.00;99320.50;4966996;28;20065;-77
2022/12/30 04:53:50;;;;;;;2.08;0.45;;;;;;;10.22;100.00;99305.84;4957479;28;20050;-81
2022/12/30 04:56:19;;;;;;;1.02;0.38;;;;;;;10.17;100.00;99309.22;4965093;28;20716;-81
2022/12/30 04:58:48;;;;;;;1.00;0.50;;;;;;;10.18;100.00;99306.66;4959853;28;20049;-76
2022/12/30 05:01:18;;;;;;;0.82;0.35;;;;;;;10.16;100.00;99298.03;4967201;28;20046;-78
2022/12/30 05:03:47;;;;;;;4.20;0.40;;;;;;;10.15;100.00;99290.28;4965856;28;20696;-80
2022/12/30 05:06:15;;;;;;;1.08;0.45;;;;;;;10.14;100.00;99283.38;4969521;28;20055;-77
2022/12/30 05:08:44;;;;;;;0.88;0.43;;;;;;;10.15;100.00;99280.81;4965531;28;20074;-77
2022/12/30 05:11:13;;;;;;;3.67;0.63;;;;;;;10.16;100.00;99267.00;4970040;28;20540;-79
2022/12/30 05:13:41;;;;;;;1.10;0.50;;;;;;;10.12;100.00;99239.41;4969634;28;20143;-75
2022/12/30 05:16:10;;;;;;;1.65;1.02;;;;;;;10.16;100.00;99236.00;4969333;28;20043;-79
2022/12/30 05:18:40;;;;;;;3.90;1.65;;;;;;;10.19;100.00;99219.66;4970938;28;20047;-79
2022/12/30 05:21:09;;;;;;;0.88;0.43;;;;;;;10.17;100.00;99211.00;4971085;28;20058;-79
2022/12/30 05:26:23;;;;;;;0.85;0.35;;;;;;;10.15;100.00;99198.09;4964585;28;20061;-81
2022/12/30 05:28:52;;;;;;;0.38;0.20;;;;;;;10.13;100.00;99183.44;4965618;28;20138;-81
2022/12/30 05:31:21;;;;;;;0.50;0.28;;;;;;;10.16;100.00;99176.56;4969523;28;20055;-77
2022/12/30 05:33:51;;;;;;;2.17;0.30;;;;;;;10.13;100.00;99158.47;4970550;28;20073;-79
2022/12/30 05:36:20;;;;;;;0.32;0.20;;;;;;;10.16;100.00;99157.59;4966996;28;20073;-82
2022/12/30 05:38:49;;;;;;;0.30;0.28;;;;;;;10.17;100.00;99147.28;4972277;28;20058;-78
2022/12/30 05:41:17;;;;;;;0.25;0.17;;;;;;;10.18;100.00;99130.91;4970332;28;20130;-79
2022/12/30 05:43:46;;;;;;;0.10;0.10;;;;;;;10.19;100.00;99139.53;4970871;28;20455;-78
2022/12/30 05:46:15;;;;;;;0.75;0.30;;;;;;;10.19;100.00;99129.19;4966751;28;20043;-77
2022/12/30 05:48:43;;;;;;;2.50;0.10;;;;;;;10.15;100.00;99107.66;4971254;28;20062;-77
2022/12/30 05:51:14;;;;;;;0.28;0.15;;;;;;;10.09;100.00;99097.25;4967515;28;20419;-76
2022/12/30 05:53:43;;;;;;;0.57;0.10;;;;;;;10.16;100.00;99106.78;4965552;28;20057;-76
2022/12/30 05:56:11;;;;;;;0.35;0.13;;;;;;;10.15;100.00;99097.31;4968655;28;20489;-77
2022/12/30 05:58:40;;;;;;;0.20;0.20;;;;;;;10.16;100.00;99091.25;4970504;28;20491;-77
2022/12/30 06:01:08;;;;;;;0.50;0.30;;;;;;;10.16;100.00;99083.50;4969034;28;20063;-75
2022/12/30 06:03:37;;;;;;;0.50;0.15;;;;;;;10.17;100.00;99086.94;4965452;28;20492;-78
2022/12/30 06:06:08;;;;;;;0.90;0.20;;;;;;;10.17;100.00;99067.16;4970458;28;20057;-79
2022/12/30 06:08:39;;;;;;;0.55;0.20;;;;;;;10.18;100.00;99055.94;4963807;28;20119;-79
2022/12/30 06:11:08;;;;;;;0.40;0.10;;;;;;;10.20;100.00;99062.00;4965558;28;20059;-78
2022/12/30 06:13:37;;;;;;;0.20;0.10;;;;;;;10.23;100.00;99051.66;4968445;28;20086;-77
2022/12/30 06:16:06;;;;;;;0.17;0.17;;;;;;;10.24;100.00;99049.97;4970449;28;20523;-78
2022/12/30 06:18:34;;;;;;;0.43;0.28;;;;;;;10.25;100.00;99055.13;4964177;28;20706;-77
2022/12/30 06:21:03;;;;;;;1.10;0.38;;;;;;;10.29;100.00;99045.69;4968131;28;20047;-77
2022/12/30 06:23:32;;;;;;;1.00;0.55;;;;;;;10.32;100.00;99047.41;4966957;28;20042;-75
2022/12/30 06:26:03;;;;;;;0.40;0.20;;;;;;;10.30;100.00;99049.13;4964373;28;20478;-75
2022/12/30 06:28:32;;;;;;;0.20;0.10;;;;;;;10.24;100.00;99053.41;4967706;28;20055;-78
2022/12/30 06:31:01;;;;;;;0.20;0.20;;;;;;;10.29;100.00;99045.69;4966659;28;20050;-78
2022/12/30 06:33:29;;;;;;;0.20;0.10;;;;;;;10.33;100.00;99043.97;4970947;28;20050;-79
2022/12/30 06:35:58;;;;;;;0.70;0.20;;;;;;;10.35;100.00;99039.66;4972432;28;20046;-80
2022/12/30 06:38:26;;;;;;;0.43;0.13;;;;;;;10.33;100.00;99049.13;4963074;28;20058;-79
2022/12/30 06:40:55;;;;;;;0.60;0.15;;;;;;;10.32;100.00;99050.88;4964396;28;20050;-79
2022/12/30 06:43:25;;;;;;;0.10;0.10;;;;;;;10.37;100.00;99053.47;4966129;28;20057;-79
2022/12/30 06:45:54;;;;;;;0.25;0.10;;;;;;;10.34;100.00;99045.72;4966600;28;20050;-77
2022/12/30 06:48:22;;;;;;;0.52;0.20;;;;;;;10.39;100.00;99073.28;4963564;28;20039;-76
2022/12/30 06:50:51;;;;;;;1.17;0.60;;;;;;;10.47;100.00;99078.50;4964656;28;20050;-76
2022/12/30 06:53:19;;;;;;;1.27;0.70;;;;;;;10.47;100.00;99075.91;4969907;28;20042;-78
2022/12/30 06:55:48;;;;;;;2.20;1.08;;;;;;;10.47;100.00;99073.34;4969112;28;20127;-76
2022/12/30 06:58:17;;;;;;;1.60;1.13;;;;;;;10.47;100.00;99086.25;4971163;28;20046;-76
2022/12/30 07:00:47;;;;;;;2.42;1.00;;;;;;;10.46;100.00;99090.53;4971681;28;20058;-77
2022/12/30 07:03:15;;;;;;;3.55;1.00;;;;;;;10.45;100.00;99090.56;4970951;28;20129;-77
2022/12/30 07:05:44;;;;;;;1.13;0.77;;;;;;;10.44;100.00;99096.56;4968999;28;20054;-76
2022/12/30 07:08:13;;;;;;;1.95;0.82;;;;;;;10.45;100.00;99106.06;4967587;28;20043;-76
2022/12/30 07:10:41;;;;;;;1.88;0.70;;;;;;;10.45;100.00;99119.00;4970176;28;20141;-77
2022/12/30 07:13:11;;;;;;;0.88;0.55;;;;;;;10.44;100.00;99125.00;4966934;28;20411;-76
2022/12/30 07:15:39;;;;;;;0.90;0.70;;;;;;;10.46;100.00;99131.06;4962428;28;20516;-77
2022/12/30 07:18:09;;;;;;;3.33;0.90;;;;;;;10.46;100.00;99131.06;4964909;28;20054;-74
2022/12/30 07:20:38;;;;;;;1.25;0.55;;;;;;;10.45;100.00;99129.34;4966744;28;20054;-74
2022/12/30 07:23:07;;;;;;;0.82;0.55;;;;;;;10.45;100.00;99130.19;4967551;28;20047;-75
2022/12/30 07:25:35;;;;;;;1.70;0.57;;;;;;;10.44;100.00;99127.59;4968667;28;20050;-75
2022/12/30 07:28:06;;;;;;;1.00;0.50;;;;;;;10.46;100.00;99146.56;4969077;28;20051;-76
2022/12/30 07:30:35;;;;;;;1.58;0.50;;;;;;;10.42;100.00;99139.66;4968983;28;20113;-75
2022/12/30 07:33:04;;;;;;;0.80;0.50;;;;;;;10.41;100.00;99143.97;4970401;28;20043;-75
2022/12/30 07:35:34;;;;;;;1.00;0.50;;;;;;;10.36;100.00;99147.41;4966459;28;20070;-75
2022/12/30 07:38:02;;;;;;;1.08;0.28;;;;;;;10.31;100.00;99142.22;4968219;28;20050;-75
2022/12/30 07:40:31;;;;;;;0.30;0.30;;;;;;;10.26;100.00;99144.75;4966959;28;20700;-76
2022/12/30 07:43:00;;;;;;;0.28;0.17;;;;;;;10.25;100.00;99148.16;4964988;28;20134;-76
2022/12/30 07:45:28;;;;;;;1.10;0.40;;;;;;;10.25;100.00;99152.47;4966497;28;20046;-76
2022/12/30 07:47:59;;;;;;;0.82;0.43;;;;;;;10.26;100.00;99143.84;4963509;28;20227;-76
2022/12/30 07:50:28;;;;;;;1.75;0.30;;;;;;;10.24;100.00;99151.63;4965615;28;20161;-75
2022/12/30 07:52:58;;;;;;;1.00;0.10;;;;;;;10.21;100.00;99151.59;4967008;28;20047;-76
2022/12/30 07:55:34;;;;;;;1.08;0.40;;;;;;;10.18;100.00;99167.09;4968607;28;20058;-76
2022/12/30 07:58:03;;;;;;;1.90;0.60;;;;;;;10.17;100.00;99160.22;4965824;28;20528;-75
2022/12/30 08:00:31;;;;;;;3.10;0.43;;;;;;;10.06;100.00;99160.13;4968852;28;20078;-75
2022/12/30 08:03:00;;;;;;;0.30;0.20;;;;;;;10.06;100.00;99167.03;4964692;28;20049;-76
2022/12/30 08:05:29;;;;;;;0.82;0.30;;;;;;;10.05;100.00;99178.22;4966009;28;20089;-77
2022/12/30 08:07:59;;;;;;;1.27;0.10;;;;;;;10.00;100.00;99173.00;4965493;28;21022;-75
2022/12/30 08:10:28;;;;;;;0.25;0.25;;;;;;;10.09;100.00;99192.88;4967625;28;20077;-76
2022/12/30 08:12:56;;;;;;;0.30;0.10;;;;;;;10.07;100.00;99199.75;4965949;28;20062;-76
2022/12/30 08:15:25;;;;;;;0.10;0.10;;;;;;;10.04;100.00;99195.44;4963689;28;20058;-77
2022/12/30 08:17:53;;;;;;;0.22;0.20;;;;;;;10.06;100.00;99198.03;4968585;28;20047;-75
2022/12/30 08:20:22;;;;;;;0.30;0.13;;;;;;;10.05;100.00;99193.72;4964512;28;20046;-75
2022/12/30 08:22:50;;;;;;;0.70;0.30;;;;;;;10.04;100.00;99194.59;4960169;28;20059;-76
2022/12/30 08:25:21;;;;;;;0.57;0.28;;;;;;;10.00;100.00;99190.25;4968878;28;20527;-77
2022/12/30 08:27:49;;;;;;;1.00;0.10;;;;;;;9.98;100.00;99179.03;4967900;28;20101;-76
2022/12/30 08:30:18;;;;;;;0.20;0.20;;;;;;;9.99;100.00;99184.22;4968701;28;20059;-75
2022/12/30 08:32:46;;;;;;;0.20;0.10;;;;;;;10.00;100.00;99182.50;4966693;28;20051;-75
2022/12/30 08:35:15;;;;;;;0.30;0.30;;;;;;;10.04;100.00;99197.16;4966527;28;20431;-74
2022/12/30 08:37:44;;;;;;;0.82;0.22;;;;;;;10.06;100.00;99203.22;4965156;28;20047;-77
2022/12/30 08:40:13;;;;;;;0.35;0.25;;;;;;;10.07;100.00;99210.94;4963313;28;20050;-75
2022/12/30 08:42:43;;;;;;;0.30;0.30;;;;;;;10.07;100.00;99202.34;4966914;28;20124;-74
2022/12/30 08:45:12;;;;;;;1.02;0.20;;;;;;;10.08;100.00;99204.09;4966927;28;20053;-74
2022/12/30 08:47:42;;;;;;;0.38;0.20;;;;;;;10.09;100.00;99212.69;4973052;28;20050;-76
2022/12/30 08:50:11;;;;;;;0.20;0.10;;;;;;;10.05;100.00;99227.31;4967817;28;20054;-75
2022/12/30 08:52:39;;;;;;;0.30;0.20;;;;;;;10.08;100.00;99224.75;4971202;28;20055;-74
2022/12/30 08:55:09;;;;;;;0.43;0.25;;;;;;;10.09;100.00;99233.38;4972959;28;20599;-75
2022/12/30 08:57:40;;;;;;;0.40;0.13;;;;;;;10.02;100.00;99215.22;4972786;28;20143;-75
2022/12/30 09:00:11;;;;;;;0.13;0.13;;;;;;;10.06;100.00;99235.09;4968658;28;20560;-75
2022/12/30 09:02:40;;;;;;;0.40;0.20;;;;;;;10.04;100.00;99235.94;4972518;28;20046;-75
2022/12/30 09:05:09;;;;;;;2.00;0.30;;;;;;;10.03;100.00;99234.19;4968291;28;20066;-75
2022/12/30 09:07:37;;;;;;;1.08;0.38;;;;;;;10.04;100.00;99226.44;4969990;28;20091;-75
2022/12/30 09:10:11;;;;;;;0.70;0.40;;;;;;;10.04;100.00;99233.34;4971391;28;20077;-75
2022/12/30 09:12:40;;;;;;;0.20;0.10;;;;;;;10.00;100.00;99226.41;4972436;28;20047;-75
2022/12/30 09:15:11;;;;;;;0.15;0.03;;;;;;;10.03;100.00;99235.06;4969875;28;20697;-75
2022/12/30 09:17:39;;;;;;;0.20;0.20;;;;;;;10.05;100.00;99240.22;4968548;28;20559;-76
2022/12/30 09:20:09;;;;;;;1.92;0.10;;;;;;;10.04;100.00;99252.28;4970384;28;20062;-77
2022/12/30 09:22:44;;;;;;;0.22;0.20;;;;;;;10.01;100.00;99254.88;4971566;28;20047;-77
2022/12/30 09:25:13;;;;;;;0.63;0.20;;;;;;;10.01;100.00;99256.56;4972091;28;20445;-75
2022/12/30 09:27:41;;;;;;;1.08;0.20;;;;;;;10.00;100.00;99254.84;4971219;28;20047;-75
2022/12/30 09:30:13;;;;;;;0.50;0.10;;;;;;;9.99;100.00;99247.97;4970585;28;20047;-76
2022/12/30 09:32:41;;;;;;;0.10;0.10;;;;;;;9.97;100.00;99260.84;4970598;28;20703;-75
2022/12/30 09:35:10;;;;;;;0.28;0.10;;;;;;;9.98;100.00;99252.22;4965929;28;20051;-75
2022/12/30 09:37:39;;;;;;;1.85;0.30;;;;;;;10.00;100.00;99262.59;4966993;28;20110;-75
2022/12/30 09:40:10;;;;;;;0.25;0.10;;;;;;;9.95;100.00;99254.81;4967700;28;20054;-76
2022/12/30 09:45:32;;;;;;;1.33;0.20;;;;;;;9.99;100.00;99264.31;4969204;28;20138;-76
2022/12/30 09:48:06;;;;;;;0.47;0.20;;;;;;;9.98;100.00;99272.91;4971898;28;20061;-75
2022/12/30 09:50:41;;;;;;;0.55;0.10;;;;;;;9.99;100.00;99291.88;4970791;28;20062;-74
2022/12/30 09:53:17;;;;;;;0.43;0.13;;;;;;;9.97;100.00;99320.28;4969147;28;20050;-74
2022/12/30 09:55:52;;;;;;;1.13;0.13;;;;;;;9.99;100.00;99328.06;4965775;28;20051;-75
2022/12/30 09:58:26;;;;;;;1.00;0.20;;;;;;;9.99;100.00;99335.81;4966211;28;20043;-75
2022/12/30 10:00:58;;;;;;;1.25;0.10;;;;;;;9.99;100.00;99351.31;4964024;28;20106;-75
2022/12/30 10:03:28;;;;;;;0.10;0.00;;;;;;;10.00;100.00;99353.03;4968774;28;20054;-75
2022/12/30 10:06:10;;;;;;;3.40;0.20;;;;;;;9.98;100.00;99359.91;4968658;28;20074;-74
2022/12/30 10:08:57;;;;;;;0.65;0.10;;;;;;;9.99;100.00;99357.34;4970621;28;20050;-75
2022/12/30 10:11:35;;;;;;;0.10;0.10;;;;;;;9.97;100.00;99363.34;4968398;28;20512;-76
2022/12/30 10:14:15;;;;;;;0.30;0.00;;;;;;;9.98;100.00;99365.06;4966345;28;20054;-75
2022/12/30 10:16:58;;;;;;;0.20;0.10;;;;;;;9.96;100.00;99379.69;4969940;28;20058;-75
2022/12/30 10:19:35;;;;;;;3.28;0.20;;;;;;;9.96;100.00;99387.44;4964766;28;20470;-74
2022/12/30 10:22:10;;;;;;;0.10;0.10;;;;;;;9.96;100.00;99397.78;4969956;28;20046;-74
2022/12/30 10:24:53;;;;;;;0.40;0.20;;;;;;;9.94;100.00;99397.78;4967412;28;20059;-75
2022/12/30 10:27:27;;;;;;;0.05;0.00;;;;;;;9.91;100.00;99417.53;4972656;28;20066;-75
2022/12/30 10:29:56;;;;;;;0.50;0.10;;;;;;;9.88;100.00;99420.09;4965495;28;20493;-75
2022/12/30 10:32:32;;;;;;;0.10;0.10;;;;;;;9.85;100.00;99436.44;4971192;28;20054;-74
2022/12/30 10:35:11;;;;;;;0.00;0.00;;;;;;;9.88;100.00;99435.59;4967977;28;20050;-75
2022/12/30 10:37:40;;;;;;;0.20;0.13;;;;;;;9.90;100.00;99447.69;4971736;28;20050;-75
2022/12/30 10:40:11;;;;;;;2.20;0.10;;;;;;;9.90;100.00;99454.56;4968404;28;20054;-74
2022/12/30 10:42:58;;;;;;;0.30;0.20;;;;;;;9.91;100.00;99471.78;4965843;28;20066;-75
2022/12/30 10:45:48;;;;;;;0.43;0.13;;;;;;;9.94;100.00;99471.81;4970605;28;20054;-75
2022/12/30 10:48:49;;;;;;;0.28;0.10;;;;;;;9.95;100.00;99483.91;4963982;28;20057;-75
2022/12/30 10:51:19;;;;;;;0.10;0.10;;;;;;;9.97;100.00;99497.72;4970251;28;20501;-75
2022/12/30 10:53:50;;;;;;;0.08;0.08;;;;;;;9.95;100.00;99500.28;4969509;28;20054;-74
2022/12/30 10:56:24;;;;;;;0.00;0.00;;;;;;;9.95;100.00;99514.91;4966173;28;20055;-76
2022/12/30 10:58:55;;;;;;;0.20;0.20;;;;;;;9.95;100.00;99507.16;4970632;28;20051;-74
2022/12/30 11:01:28;;;;;;;2.58;0.20;;;;;;;9.97;100.00;99518.38;4967802;28;20054;-75
2022/12/30 11:03:59;;;;;;;1.10;0.10;;;;;;;9.94;100.00;99508.00;4969594;28;20062;-76
2022/12/30 11:06:29;;;;;;;0.30;0.10;;;;;;;9.99;100.00;99516.69;4963272;28;20082;-77
2022/12/30 11:09:18;;;;;;;0.25;0.08;;;;;;;10.07;100.00;99515.06;4969708;28;20051;-76
2022/12/30 11:17:24;;;;;;;1.00;0.00;;;;;;;10.32;100.00;99525.72;4969095;28;20062;-75
2022/12/30 11:19:56;;;;;;;0.30;0.13;;;;;;;10.34;100.00;99542.97;4969923;28;20047;-75
2022/12/30 11:22:25;;;;;;;0.70;0.22;;;;;;;10.37;100.00;99547.31;4970703;28;20118;-74
2022/12/30 11:25:04;;;;;;;1.83;0.30;;;;;;;10.39;100.00;99537.84;4966470;28;20532;-77
2022/12/30 11:27:42;;;;;;;1.15;0.30;;;;;;;10.41;100.00;99549.06;4967728;28;20054;-76
2022/12/30 11:30:26;;;;;;;2.45;0.63;;;;;;;10.42;100.00;99548.22;4970937;28;20062;-76
2022/12/30 11:32:56;;;;;;;1.60;0.25;;;;;;;10.43;100.00;99549.97;4968211;28;20066;-75
2022/12/30 11:35:38;;;;;;;2.33;0.35;;;;;;;10.46;100.00;99539.63;4966422;28;20523;-74
2022/12/30 11:38:27;;;;;;;1.80;0.30;;;;;;;10.47;100.00;99544.84;4969109;28;20073;-76
2022/12/30 11:40:56;;;;;;;2.53;0.55;;;;;;;10.47;100.00;99559.50;4968385;28;20090;-75
2022/12/30 11:43:25;;;;;;;1.77;0.25;;;;;;;10.48;100.00;99563.81;4964472;28;20051;-74
2022/12/30 11:46:05;;;;;;;3.33;0.50;;;;;;;10.48;100.00;99574.16;4970714;28;20101;-74
2022/12/30 11:48:35;;;;;;;1.85;0.55;;;;;;;10.38;100.00;99570.59;4968035;28;20051;-75
2022/12/30 11:51:15;;;;;;;2.97;0.80;;;;;;;10.47;100.00;99582.78;4969423;28;20641;-75
2022/12/30 11:53:44;;;;;;;3.20;0.68;;;;;;;10.44;100.00;99585.31;4967707;28;20196;-74
2022/12/30 11:56:13;;;;;;;7.10;0.95;;;;;;;10.42;100.00;99610.28;4969951;28;20053;-75
2022/12/30 11:58:42;;;;;;;6.03;0.70;;;;;;;10.38;100.00;99613.69;4966592;28;20065;-76
2022/12/30 12:01:13;;;;;;;3.92;0.93;;;;;;;10.35;100.00;99631.75;4967236;28;20051;-76
2022/12/30 12:03:53;;;;;;;7.75;1.02;;;;;;;10.33;100.00;99638.59;4962363;28;20083;-75
2022/12/30 12:06:23;;;;;;;4.05;0.80;;;;;;;10.27;100.00;99629.03;4961304;28;20106;-75
2022/12/30 12:09:01;;;;;;;6.80;1.10;;;;;;;10.27;100.00;99632.47;4967642;28;20497;-75
2022/12/30 12:11:37;;;;;;;6.03;0.95;;;;;;;10.26;100.00;99629.88;4970244;28;20147;-74
2022/12/30 12:14:12;;;;;;;7.85;0.98;;;;;;;10.21;100.00;99624.63;4963631;28;20098;-73
2022/12/30 12:16:58;;;;;;;5.78;1.17;;;;;;;10.20;100.00;99643.59;4972849;28;20058;-76
2022/12/30 12:19:35;;;;;;;9.48;1.45;;;;;;;10.21;100.00;99642.72;4970552;28;20054;-75
2022/12/30 12:22:16;;;;;;;5.13;1.13;;;;;;;10.20;100.00;99656.53;4962332;28;20074;-75
2022/12/30 12:24:48;;;;;;;9.75;1.55;;;;;;;10.22;100.00;99656.56;4969017;28;20057;-77
2022/12/30 12:27:19;;;;;;;5.57;1.43;;;;;;;10.23;100.00;99664.31;4963610;28;20042;-76
2022/12/30 12:29:48;;;;;;;10.38;1.98;;;;;;;10.22;100.00;99670.34;4965638;28;20149;-75
2022/12/30 12:32:56;;;;;;;4.32;1.27;;;;;;;10.23;100.00;99678.97;4966590;28;20050;-73
2022/12/30 12:35:32;;;;;;;5.82;1.25;;;;;;;10.25;100.00;99669.50;4962920;28;20057;-74
2022/12/30 12:38:17;;;;;;;11.32;2.33;;;;;;;10.26;100.00;99677.28;4972398;28;20043;-75
2022/12/30 12:41:12;;;;;;;4.65;1.05;;;;;;;10.27;100.00;99676.44;4960113;28;20608;-77
2022/12/30 12:43:55;;;;;;;10.13;1.13;;;;;;;10.29;100.00;99676.50;4966189;28;20055;-74
2022/12/30 12:46:30;;;;;;;;;;;;;;;10.26;100.00;99672.13;4969504;28;20819;-75
2022/12/30 12:49:19;;;;;;;7.35;0.77;;;;;;;10.31;100.00;99666.16;4968235;28;19922;-74
2022/12/30 12:52:02;;;;;;;8.30;1.85;;;;;;;10.34;100.00;99655.88;4964189;28;20054;-75
2022/12/30 12:55:06;;;;;;;7.43;1.33;;;;;;;10.35;100.00;99655.00;4969331;28;20050;-75